Terminal Aerodrome Forecast
Issued by NWS Cleveland, OH

Home | Current Version | Previous Version | Graphics & Text | Print | Product List | Glossary On
Versions: 1 2 3 4 5 6 7 8 9 10 11 12 13 14 15 16 17 18 19 20 21 22 23 24
315
FTUS41 KCLE 211307 AAB
TAFCLE
TAF AMD
KCLE 211307Z 2113/2218 24004KT 1/4SM FG OVC002
      TEMPO 2114/2116 1 1/2SM BR OVC006
     FM211600 29010KT 1 1/2SM BR OVC006
      TEMPO 2117/2119 3SM BR OVC010
     FM211900 28012KT P6SM SCT012
     FM220100 35014G22KT P6SM BKN035
     FM220800 35014G22KT P6SM BKN025=

USA.gov is the U.S. government's official web portal to all federal, state and local government web resources and services.